Time;durP1;ratioP1;P1;durP2;ratioP2;P2;SDS_P1;SDS_P2;PMS_P1;PMS_P2;Temp;Humidity;BMP_temperature;BMP_pressure;BME280_temperature;BME280_humidity;BME280_pressure;Samples;Min_cycle;Max_cycle;Signal;HPM_P1;HPM_P2
2021/03/25 00:00:52;;;;;;;15.82;4.03;;;7.60;99.90;;;;;;5032047;28;20076;-81
2021/03/25 00:03:20;;;;;;;18.27;3.95;;;7.60;99.90;;;;;;5031691;28;20141;-81
2021/03/25 00:05:50;;;;;;;18.85;3.70;;;7.60;99.90;;;;;;5012052;28;20053;-81
2021/03/25 00:08:17;;;;;;;;;;;7.50;99.90;;;;;;5013605;28;20033;-81
2021/03/25 00:10:44;;;;;;;15.18;3.53;;;7.50;99.90;;;;;;5010965;28;19944;-81
2021/03/25 00:13:11;;;;;;;19.55;4.30;;;7.50;99.90;;;;;;5028619;28;20049;-81
2021/03/25 00:15:39;;;;;;;18.08;3.90;;;7.50;99.90;;;;;;5010984;28;20103;-81
2021/03/25 00:18:07;;;;;;;24.95;4.05;;;7.40;99.90;;;;;;5011909;28;20049;-81
2021/03/25 00:20:34;;;;;;;18.92;3.75;;;7.40;99.90;;;;;;5012089;28;20041;-81
2021/03/25 00:23:01;;;;;;;16.30;3.47;;;7.40;99.90;;;;;;5033812;28;20113;-81
2021/03/25 00:25:35;;;;;;;11.73;3.83;;;7.30;99.90;;;;;;5031858;28;20111;-81
2021/03/25 00:28:03;;;;;;;19.65;4.00;;;7.30;99.90;;;;;;5034010;28;20049;-81
2021/03/25 00:30:31;;;;;;;17.00;3.63;;;7.30;99.90;;;;;;5026116;28;20045;-81
2021/03/25 00:33:01;;;;;;;14.95;4.10;;;7.20;99.90;;;;;;5019911;28;20104;-81
2021/03/25 00:35:28;;;;;;;15.50;3.67;;;7.20;99.90;;;;;;5030893;28;20491;-81
2021/03/25 00:37:56;;;;;;;16.50;3.70;;;7.10;99.90;;;;;;5034568;28;20131;-81
2021/03/25 00:40:35;;;;;;;18.23;4.00;;;7.10;99.90;;;;;;5022662;28;20461;-81
2021/03/25 00:43:04;;;;;;;15.95;3.80;;;7.10;99.90;;;;;;5028271;28;20049;-81
2021/03/25 00:45:46;;;;;;;19.15;3.80;;;7.00;99.90;;;;;;5026061;28;20733;-81
2021/03/25 00:48:15;;;;;;;18.42;5.13;;;7.00;99.90;;;;;;5040313;28;20124;-81
2021/03/25 00:50:46;;;;;;;;;;;7.00;99.90;;;;;;5023297;28;20045;-81
2021/03/25 00:53:15;;;;;;;20.75;4.80;;;7.00;99.90;;;;;;5031010;28;19944;-81
2021/03/25 00:55:42;;;;;;;16.58;4.20;;;7.00;99.90;;;;;;5015641;28;20042;-81
2021/03/25 00:58:09;;;;;;;18.75;4.50;;;6.90;99.90;;;;;;5017052;28;20053;-81
2021/03/25 01:00:39;;;;;;;18.17;3.95;;;6.90;99.90;;;;;;5029451;28;20451;-81
2021/03/25 01:03:07;;;;;;;14.30;4.05;;;6.90;99.90;;;;;;5014211;28;20549;-81
2021/03/25 01:05:34;;;;;;;19.23;4.95;;;6.90;99.90;;;;;;5019504;28;20096;-81
2021/03/25 01:08:00;;;;;;;24.55;4.28;;;6.90;99.90;;;;;;5011224;28;20120;-81
2021/03/25 01:10:33;;;;;;;20.65;4.05;;;6.90;99.90;;;;;;5025830;28;20049;-82
2021/03/25 01:13:01;;;;;;;20.77;3.33;;;6.90;99.90;;;;;;5009006;28;20042;-81
2021/03/25 01:15:28;;;;;;;18.23;3.70;;;7.00;99.90;;;;;;5028976;28;20549;-81
2021/03/25 01:17:58;;;;;;;19.55;3.58;;;7.00;99.90;;;;;;5030505;28;20453;-81
2021/03/25 01:20:31;;;;;;;22.95;3.47;;;7.00;99.90;;;;;;5011594;28;20049;-81
2021/03/25 01:22:59;;;;;;;16.60;3.80;;;7.00;99.90;;;;;;5010110;28;20367;-81
2021/03/25 01:25:29;;;;;;;21.02;3.15;;;7.00;99.90;;;;;;5000277;28;20076;-81
2021/03/25 01:27:58;;;;;;;18.55;3.15;;;7.10;99.90;;;;;;5012252;28;20387;-81
2021/03/25 01:30:25;;;;;;;14.52;3.08;;;7.10;99.90;;;;;;5026028;28;20041;-81
2021/03/25 01:32:52;;;;;;;14.77;3.00;;;7.10;99.90;;;;;;5008020;28;20049;-81
2021/03/25 01:35:19;;;;;;;23.08;3.15;;;7.10;99.90;;;;;;4996316;28;20057;-81
2021/03/25 01:37:48;;;;;;;14.95;3.15;;;7.10;99.90;;;;;;5029433;28;20053;-81
2021/03/25 01:40:50;;;;;;;20.63;3.42;;;7.10;99.90;;;;;;5010619;28;20057;-81
2021/03/25 01:43:33;;;;;;;18.67;3.75;;;7.10;99.90;;;;;;5026568;28;20053;-81
2021/03/25 01:46:24;;;;;;;19.35;3.22;;;7.10;99.90;;;;;;5025225;28;20041;-81
2021/03/25 01:48:56;;;;;;;17.00;3.45;;;7.10;99.90;;;;;;5011722;28;20057;-81
2021/03/25 01:51:47;;;;;;;16.15;3.72;;;7.10;99.90;;;;;;5012787;28;20057;-81
2021/03/25 01:54:19;;;;;;;18.80;2.95;;;7.00;99.90;;;;;;5011792;28;20050;-82
2021/03/25 01:57:00;;;;;;;22.70;3.58;;;7.00;99.90;;;;;;5014478;28;20080;-81
2021/03/25 01:59:41;;;;;;;22.50;3.47;;;6.90;99.90;;;;;;5011660;28;20502;-81
2021/03/25 02:02:33;;;;;;;17.60;3.13;;;6.90;99.90;;;;;;5011178;28;20057;-81
2021/03/25 02:05:25;;;;;;;18.33;2.75;;;6.80;99.90;;;;;;4963469;28;20337;-81
2021/03/25 02:08:44;;;;;;;19.33;3.03;;;6.80;99.90;;;;;;4943476;28;20179;-82
2021/03/25 02:11:36;;;;;;;20.00;3.10;;;6.70;99.90;;;;;;4927547;29;20062;-81
2021/03/25 02:14:21;;;;;;;18.17;2.92;;;6.70;99.90;;;;;;4912936;29;20086;-82
2021/03/25 02:16:58;;;;;;;9.55;2.65;;;6.70;99.90;;;;;;4897027;29;20104;-81
2021/03/25 02:19:56;;;;;;;13.32;2.72;;;6.60;99.90;;;;;;4913306;29;20066;-81
2021/03/25 02:23:00;;;;;;;13.05;2.83;;;6.60;99.90;;;;;;4914038;29;20115;-81
2021/03/25 02:25:34;;;;;;;14.60;2.83;;;6.60;99.90;;;;;;4899692;29;20044;-81
2021/03/25 02:28:15;;;;;;;16.73;2.42;;;6.50;99.90;;;;;;4896641;29;20070;-81
2021/03/25 02:30:44;;;;;;;11.50;2.13;;;6.50;99.90;;;;;;4912924;29;20051;-81
2021/03/25 02:33:19;;;;;;;13.90;2.55;;;6.50;99.90;;;;;;4913214;29;20044;-81
2021/03/25 02:35:52;;;;;;;14.23;2.88;;;6.50;99.90;;;;;;4918204;29;20071;-81
2021/03/25 02:38:25;;;;;;;14.05;2.38;;;6.40;99.90;;;;;;4896096;29;20067;-81
2021/03/25 02:41:15;;;;;;;15.43;2.70;;;6.40;99.90;;;;;;4898980;29;20060;-81
2021/03/25 02:43:44;;;;;;;13.15;3.05;;;6.50;99.90;;;;;;4928404;29;20435;-81
2021/03/25 02:46:30;;;;;;;13.43;2.50;;;6.40;99.90;;;;;;4965426;28;20065;-81
2021/03/25 02:49:02;;;;;;;17.00;2.38;;;6.40;99.90;;;;;;5011141;28;20064;-81
2021/03/25 02:51:34;;;;;;;10.60;2.15;;;6.30;99.90;;;;;;5006125;28;20089;-81
2021/03/25 02:54:00;;;;;;;14.65;2.42;;;6.30;99.90;;;;;;5000980;28;20053;-81
2021/03/25 02:56:34;;;;;;;13.52;2.65;;;6.30;99.90;;;;;;5011562;28;20110;-81
2021/03/25 02:59:11;;;;;;;17.00;2.75;;;6.20;99.90;;;;;;5010569;28;20089;-81
2021/03/25 03:01:43;;;;;;;13.82;2.40;;;6.20;99.90;;;;;;5014080;28;20103;-81
2021/03/25 03:04:21;;;;;;;16.02;2.58;;;6.20;99.90;;;;;;5015244;28;20053;-81
2021/03/25 03:06:56;;;;;;;16.45;2.67;;;6.20;99.90;;;;;;5011071;28;20129;-81
2021/03/25 03:09:26;;;;;;;15.15;3.20;;;6.10;99.90;;;;;;4996935;28;20049;-81
2021/03/25 03:11:57;;;;;;;17.98;2.90;;;6.10;99.90;;;;;;5020432;28;20057;-81
2021/03/25 03:14:29;;;;;;;16.17;2.30;;;6.10;99.90;;;;;;5015381;28;20049;-81
2021/03/25 03:17:23;;;;;;;13.65;2.70;;;6.10;99.90;;;;;;5035323;28;20057;-81
2021/03/25 03:20:30;;;;;;;21.73;2.78;;;6.00;99.90;;;;;;5004857;28;20061;-81
2021/03/25 03:22:57;;;;;;;11.98;2.50;;;6.00;99.90;;;;;;4938683;29;20059;-81
2021/03/25 03:25:25;;;;;;;11.15;2.55;;;6.00;99.90;;;;;;4952479;29;20202;-81
2021/03/25 03:28:30;;;;;;;9.65;2.35;;;6.00;99.90;;;;;;4952319;28;20055;-81
2021/03/25 03:31:04;;;;;;;12.98;2.40;;;5.90;99.90;;;;;;4873774;29;20546;-81
2021/03/25 03:34:00;;;;;;;10.27;2.33;;;5.90;99.90;;;;;;4875189;29;20057;-81
2021/03/25 03:36:28;;;;;;;18.27;3.05;;;5.90;99.90;;;;;;4860829;29;20093;-81
2021/03/25 03:38:59;;;;;;;11.00;2.45;;;5.90;99.90;;;;;;4878021;29;20578;-81
2021/03/25 03:41:48;;;;;;;12.15;2.30;;;5.90;99.90;;;;;;4874912;29;20045;-81
2021/03/25 03:44:21;;;;;;;15.10;3.05;;;5.90;99.90;;;;;;4875322;29;20049;-81
2021/03/25 03:46:49;;;;;;;15.80;2.30;;;5.90;99.90;;;;;;4876958;29;20055;-81
2021/03/25 03:49:16;;;;;;;18.42;2.80;;;5.90;99.90;;;;;;4873077;29;20060;-81
2021/03/25 03:51:51;;;;;;;18.70;2.33;;;5.90;99.90;;;;;;4864057;29;20057;-81
2021/03/25 03:54:18;;;;;;;15.60;2.30;;;5.90;99.90;;;;;;4860722;29;20049;-81
2021/03/25 03:57:08;;;;;;;10.45;2.33;;;5.80;99.90;;;;;;4864902;29;20520;-81
2021/03/25 04:00:07;;;;;;;12.77;2.35;;;5.80;99.90;;;;;;4916188;29;20043;-81
2021/03/25 04:02:40;;;;;;;13.85;2.67;;;5.80;99.90;;;;;;4896475;29;20286;-81
2021/03/25 04:05:24;;;;;;;17.75;3.03;;;5.80;99.90;;;;;;4881000;29;20057;-80
2021/03/25 04:08:04;;;;;;;12.40;2.92;;;5.80;99.90;;;;;;4974519;28;20055;-81
2021/03/25 04:10:41;;;;;;;15.30;2.92;;;5.80;99.90;;;;;;4956722;28;20086;-81
2021/03/25 04:13:23;;;;;;;17.08;3.20;;;5.80;99.90;;;;;;4955052;28;20061;-82
2021/03/25 04:15:53;;;;;;;19.70;2.80;;;5.80;99.90;;;;;;4951540;28;20054;-81
2021/03/25 04:18:48;;;;;;;21.73;3.15;;;5.80;99.90;;;;;;4953276;28;20083;-81
2021/03/25 04:21:19;;;;;;;20.40;2.88;;;5.80;99.90;;;;;;4947804;28;20397;-81
2021/03/25 04:23:48;;;;;;;16.02;3.03;;;5.90;99.90;;;;;;4956768;28;20082;-81
2021/03/25 04:26:25;;;;;;;;;;;5.90;99.90;;;;;;4953172;28;20051;-81
2021/03/25 04:29:01;;;;;;;14.00;3.13;;;6.00;99.90;;;;;;4956816;28;19929;-81
2021/03/25 04:31:30;;;;;;;14.60;3.10;;;6.00;99.90;;;;;;4953626;28;20047;-81
2021/03/25 04:33:57;;;;;;;19.65;2.75;;;6.00;99.90;;;;;;4955638;28;20081;-81
2021/03/25 04:36:27;;;;;;;14.55;2.50;;;6.00;99.90;;;;;;4968802;28;20143;-81
2021/03/25 04:38:55;;;;;;;14.98;2.10;;;6.00;99.90;;;;;;5008836;28;20087;-81
2021/03/25 04:41:23;;;;;;;12.93;2.87;;;6.00;99.90;;;;;;5012947;28;20053;-81
2021/03/25 04:43:58;;;;;;;19.63;3.33;;;6.00;99.90;;;;;;4989616;28;20363;-81
2021/03/25 04:46:49;;;;;;;21.85;2.70;;;6.10;99.90;;;;;;5012045;28;20152;-81
2021/03/25 04:49:25;;;;;;;14.88;3.10;;;6.00;99.90;;;;;;5029452;28;20057;-81
2021/03/25 04:52:04;;;;;;;20.15;2.42;;;6.00;99.90;;;;;;5034662;28;20540;-81
2021/03/25 04:54:37;;;;;;;16.52;3.30;;;6.00;99.90;;;;;;5013649;28;20045;-81
2021/03/25 04:57:24;;;;;;;13.32;2.53;;;5.90;99.90;;;;;;5014991;28;20057;-82
2021/03/25 04:59:52;;;;;;;19.90;2.95;;;5.90;99.90;;;;;;5001437;28;20045;-81
2021/03/25 05:02:19;;;;;;;16.97;3.37;;;5.90;99.90;;;;;;5031979;28;20080;-81
2021/03/25 05:04:49;;;;;;;16.60;2.90;;;5.80;99.90;;;;;;5021338;28;20050;-81
2021/03/25 05:07:38;;;;;;;17.58;3.10;;;5.80;99.90;;;;;;5006869;28;20057;-81
2021/03/25 05:10:19;;;;;;;13.88;2.90;;;5.80;99.90;;;;;;5010839;28;20115;-81
2021/03/25 05:12:45;;;;;;;17.33;2.85;;;5.80;99.90;;;;;;5021285;28;20077;-81
2021/03/25 05:15:14;;;;;;;16.55;3.22;;;5.70;99.90;;;;;;5001056;28;20049;-81
2021/03/25 05:18:18;;;;;;;14.43;2.50;;;5.70;99.90;;;;;;4990005;28;20069;-83
2021/03/25 05:21:02;;;;;;;10.18;2.70;;;5.70;99.90;;;;;;4981614;28;20054;-81
2021/03/25 05:23:51;;;;;;;29.30;3.25;;;5.70;99.90;;;;;;5026355;28;20496;-81
2021/03/25 05:26:26;;;;;;;15.57;2.42;;;5.60;99.90;;;;;;4982552;28;20057;-81
2021/03/25 05:29:00;;;;;;;18.75;2.90;;;5.70;99.90;;;;;;4996411;28;20058;-81
2021/03/25 05:31:32;;;;;;;10.35;2.70;;;5.70;99.90;;;;;;4977739;28;20058;-81
2021/03/25 05:34:03;;;;;;;14.40;2.53;;;5.60;99.90;;;;;;4995576;28;20056;-81
2021/03/25 05:36:31;;;;;;;10.73;2.20;;;5.60;99.90;;;;;;5003336;28;20466;-81
2021/03/25 05:38:58;;;;;;;25.02;3.05;;;5.60;99.90;;;;;;5009401;28;20425;-81
2021/03/25 05:41:37;;;;;;;16.73;2.67;;;5.60;99.90;;;;;;4994299;28;20080;-80
2021/03/25 05:45:00;;;;;;;19.63;2.17;;;5.60;99.90;;;;;;4997852;28;20488;-80
2021/03/25 05:47:57;;;;;;;16.27;2.38;;;5.60;99.90;;;;;;5004554;28;20081;-81
2021/03/25 05:50:32;;;;;;;8.13;2.20;;;5.60;99.90;;;;;;5009056;28;20049;-81
2021/03/25 05:53:32;;;;;;;12.32;2.20;;;5.50;99.90;;;;;;4993409;28;20058;-81
2021/03/25 05:56:13;;;;;;;10.57;2.38;;;5.50;99.90;;;;;;5027106;28;20057;-81
2021/03/25 05:58:45;;;;;;;15.80;2.88;;;5.40;99.90;;;;;;4995514;28;20058;-81
2021/03/25 06:01:27;;;;;;;14.20;2.97;;;5.40;99.90;;;;;;5003902;28;20057;-82
2021/03/25 06:04:00;;;;;;;22.08;3.00;;;5.40;99.90;;;;;;5012190;28;20045;-81
2021/03/25 06:06:41;;;;;;;15.52;2.75;;;5.30;99.90;;;;;;4990125;28;20037;-81
2021/03/25 06:09:07;;;;;;;16.50;2.72;;;5.30;99.90;;;;;;4997955;28;20045;-81
2021/03/25 06:11:48;;;;;;;25.05;3.72;;;5.30;99.90;;;;;;4982802;28;20104;-80
2021/03/25 06:14:36;;;;;;;22.67;3.60;;;5.30;99.90;;;;;;5009609;28;20057;-81
2021/03/25 06:17:02;;;;;;;32.25;4.05;;;5.30;99.90;;;;;;5024513;28;20049;-80
2021/03/25 06:20:05;;;;;;;18.45;3.25;;;5.30;99.90;;;;;;5007261;28;20053;-81
2021/03/25 06:22:58;;;;;;;42.72;5.35;;;5.20;99.90;;;;;;5012751;28;20121;-81
2021/03/25 06:25:48;;;;;;;22.02;3.42;;;5.20;99.90;;;;;;5007833;28;20057;-80
2021/03/25 06:28:46;;;;;;;19.35;3.35;;;5.20;99.90;;;;;;5010434;28;20057;-80
2021/03/25 06:31:16;;;;;;;24.17;3.63;;;5.20;99.90;;;;;;5005734;28;20053;-80
2021/03/25 06:34:01;;;;;;;17.33;4.03;;;5.20;99.90;;;;;;5009560;28;20081;-80
2021/03/25 06:36:46;;;;;;;18.25;3.53;;;5.20;99.90;;;;;;5005942;28;20054;-81
2021/03/25 06:39:26;;;;;;;26.98;4.18;;;5.20;99.90;;;;;;5013650;28;20100;-80
2021/03/25 06:42:18;;;;;;;19.73;3.47;;;5.30;99.90;;;;;;5015611;28;20054;-81
2021/03/25 06:45:11;;;;;;;26.40;5.10;;;5.30;99.90;;;;;;5014608;28;20050;-81
2021/03/25 06:47:57;;;;;;;26.92;4.32;;;5.30;99.90;;;;;;5013328;28;20053;-80
2021/03/25 06:50:50;;;;;;;20.23;4.85;;;5.40;99.90;;;;;;5012640;28;20085;-80
2021/03/25 06:53:32;;;;;;;27.02;4.63;;;5.40;99.90;;;;;;4999261;28;20050;-80
2021/03/25 06:56:10;;;;;;;16.70;3.83;;;5.50;99.90;;;;;;5000301;28;20109;-80
2021/03/25 06:58:50;;;;;;;21.25;3.85;;;5.50;99.90;;;;;;5014887;28;20056;-80
2021/03/25 07:01:29;;;;;;;18.83;4.28;;;5.60;99.90;;;;;;5007783;28;20046;-80
2021/03/25 07:04:01;;;;;;;13.77;3.88;;;5.70;99.90;;;;;;5013426;28;20057;-80
2021/03/25 07:06:33;;;;;;;13.98;4.40;;;5.70;99.90;;;;;;5009047;28;20046;-80
2021/03/25 07:08:59;;;;;;;17.83;4.28;;;5.80;99.90;;;;;;5009495;28;20521;-80
2021/03/25 07:11:28;;;;;;;17.63;4.40;;;5.90;99.90;;;;;;5015492;28;20079;-80
2021/03/25 07:14:06;;;;;;;15.20;4.82;;;6.00;99.90;;;;;;5019674;28;20065;-81
2021/03/25 07:16:53;;;;;;;13.63;4.28;;;6.10;99.90;;;;;;5017512;28;20144;-80
2021/03/25 07:19:22;;;;;;;15.45;4.68;;;6.30;99.90;;;;;;5001914;28;20049;-80
2021/03/25 07:22:09;;;;;;;22.92;4.82;;;6.40;99.90;;;;;;5017677;28;20104;-80
2021/03/25 07:24:35;;;;;;;19.38;4.68;;;6.50;99.90;;;;;;5017362;28;20100;-80
2021/03/25 07:27:09;;;;;;;22.05;5.38;;;6.60;99.90;;;;;;4995659;28;20050;-80
2021/03/25 07:29:45;;;;;;;15.35;5.03;;;6.80;99.90;;;;;;5000343;28;20050;-80
2021/03/25 07:32:11;;;;;;;17.77;5.40;;;6.90;99.90;;;;;;4997757;28;20100;-80
2021/03/25 07:34:43;;;;;;;18.13;4.72;;;7.10;99.90;;;;;;5005645;28;20054;-81
2021/03/25 07:37:12;;;;;;;16.17;5.45;;;7.20;99.90;;;;;;5000861;28;20065;-79
2021/03/25 07:39:47;;;;;;;22.13;4.82;;;7.30;99.90;;;;;;5007228;28;20411;-79
2021/03/25 07:42:27;;;;;;;13.30;4.03;;;7.50;99.90;;;;;;5005765;28;20037;-79
2021/03/25 07:44:53;;;;;;;23.33;3.92;;;7.60;99.90;;;;;;5015470;28;20058;-80
2021/03/25 07:47:34;;;;;;;18.70;3.50;;;7.70;99.90;;;;;;4993646;28;20049;-79
2021/03/25 07:50:27;;;;;;;22.23;3.90;;;7.90;99.90;;;;;;5014257;28;20050;-79
2021/03/25 07:52:55;;;;;;;17.55;3.80;;;8.00;99.90;;;;;;4982173;28;20058;-79
2021/03/25 07:55:24;;;;;;;12.52;3.17;;;8.10;99.90;;;;;;5015193;28;20053;-80
2021/03/25 07:57:52;;;;;;;10.65;3.50;;;8.20;99.90;;;;;;5001216;28;20460;-80
2021/03/25 08:00:27;;;;;;;16.42;3.80;;;8.30;99.90;;;;;;5000111;28;20107;-79
2021/03/25 08:03:19;;;;;;;15.45;3.80;;;8.40;99.90;;;;;;5000061;28;20046;-79
2021/03/25 08:05:49;;;;;;;16.88;3.97;;;8.60;99.90;;;;;;4996930;28;20109;-79
2021/03/25 08:08:21;;;;;;;17.17;4.75;;;8.70;99.90;;;;;;4987418;28;20050;-79
2021/03/25 08:10:50;;;;;;;12.35;4.10;;;8.90;99.90;;;;;;5005826;28;20064;-79
2021/03/25 08:13:21;;;;;;;12.38;4.18;;;8.90;99.90;;;;;;4991512;28;20053;-79
2021/03/25 08:16:04;;;;;;;10.45;4.70;;;9.10;99.90;;;;;;5004612;28;20117;-79
2021/03/25 08:18:34;;;;;;;7.50;4.47;;;9.20;99.90;;;;;;5004649;28;20137;-79
2021/03/25 08:21:00;;;;;;;9.85;4.43;;;9.30;99.90;;;;;;4996293;28;20141;-79
2021/03/25 08:23:42;;;;;;;11.65;3.95;;;9.40;99.90;;;;;;4994833;28;20073;-79
2021/03/25 08:26:22;;;;;;;9.68;3.65;;;9.60;99.90;;;;;;4998440;28;20054;-79
2021/03/25 08:29:06;;;;;;;16.92;3.03;;;9.70;99.90;;;;;;5010338;28;20104;-79
2021/03/25 08:31:51;;;;;;;12.55;2.80;;;9.80;99.90;;;;;;5001431;28;20057;-79
2021/03/25 08:34:21;;;;;;;12.90;3.13;;;10.00;99.90;;;;;;5009033;28;20104;-79
2021/03/25 08:37:21;;;;;;;11.35;2.40;;;10.10;99.90;;;;;;4990807;28;20056;-79
2021/03/25 08:39:57;;;;;;;15.05;3.28;;;10.30;99.90;;;;;;5017958;28;20104;-79
2021/03/25 08:42:26;;;;;;;8.77;2.20;;;10.40;99.90;;;;;;4991111;28;20062;-79
2021/03/25 08:45:22;;;;;;;10.65;2.60;;;10.50;99.90;;;;;;5013346;28;20084;-79
2021/03/25 08:48:24;;;;;;;9.50;2.22;;;10.70;99.90;;;;;;4931894;29;20044;-79
2021/03/25 08:51:12;;;;;;;8.88;1.92;;;10.80;99.90;;;;;;4932132;29;20118;-80
2021/03/25 08:53:45;;;;;;;9.20;1.92;;;11.00;99.90;;;;;;4936189;29;20450;-79
2021/03/25 08:56:35;;;;;;;11.63;2.08;;;11.10;99.90;;;;;;4937638;29;20050;-79
2021/03/25 08:59:16;;;;;;;9.52;1.92;;;11.30;99.90;;;;;;4928508;29;20055;-79
2021/03/25 09:01:59;;;;;;;10.15;2.40;;;11.40;99.90;;;;;;4932867;29;20051;-79
2021/03/25 09:04:32;;;;;;;6.68;1.38;;;11.60;99.90;;;;;;4932539;29;20477;-79
2021/03/25 09:07:03;;;;;;;8.90;1.70;;;11.80;99.90;;;;;;4932233;29;20062;-79
2021/03/25 09:09:43;;;;;;;8.73;1.70;;;11.90;99.90;;;;;;4918351;29;20103;-79
2021/03/25 09:12:12;;;;;;;11.25;2.38;;;12.00;99.90;;;;;;4929614;28;20087;-79
2021/03/25 09:14:38;;;;;;;7.45;1.50;;;12.20;99.90;;;;;;4933024;29;20203;-79
2021/03/25 09:17:14;;;;;;;5.28;0.90;;;12.20;99.90;;;;;;4932857;29;20107;-79
2021/03/25 09:19:48;;;;;;;8.30;1.10;;;12.20;99.90;;;;;;4918525;29;20549;-80
2021/03/25 09:22:35;;;;;;;7.63;1.30;;;12.20;99.90;;;;;;4933152;29;20083;-79
2021/03/25 09:25:26;;;;;;;6.50;1.03;;;12.20;99.90;;;;;;4982212;28;20049;-79
2021/03/25 09:28:19;;;;;;;8.95;1.17;;;12.20;99.90;;;;;;5004998;28;20049;-79
2021/03/25 09:31:10;;;;;;;7.88;1.10;;;12.20;99.90;;;;;;5011189;28;20056;-79
2021/03/25 09:33:52;;;;;;;6.35;1.15;;;12.30;99.90;;;;;;4994138;28;20077;-79
2021/03/25 09:36:19;;;;;;;7.85;2.05;;;12.40;99.90;;;;;;5011002;28;20053;-80
2021/03/25 09:38:59;;;;;;;6.15;1.08;;;12.40;99.90;;;;;;4993218;28;20111;-79
2021/03/25 09:41:25;;;;;;;7.68;1.17;;;12.40;99.90;;;;;;5008438;28;20057;-79
2021/03/25 09:43:53;;;;;;;8.45;1.33;;;12.50;99.90;;;;;;5002795;28;20054;-80
2021/03/25 09:46:41;;;;;;;5.05;1.05;;;12.60;99.90;;;;;;5007973;28;20050;-80
2021/03/25 09:49:29;;;;;;;6.60;1.10;;;12.60;99.90;;;;;;5009243;28;20062;-80
2021/03/25 09:52:20;;;;;;;5.68;1.05;;;12.60;99.90;;;;;;5011791;28;20046;-79
2021/03/25 09:55:07;;;;;;;6.75;1.67;;;12.60;99.90;;;;;;5004962;28;20065;-79
2021/03/25 09:57:50;;;;;;;7.55;2.00;;;12.60;99.90;;;;;;5011006;28;20477;-80
2021/03/25 10:00:22;;;;;;;7.22;1.25;;;12.70;99.90;;;;;;5010978;28;20435;-80
2021/03/25 10:02:51;;;;;;;4.07;0.80;;;12.70;99.90;;;;;;4998456;28;20045;-80
2021/03/25 10:05:24;;;;;;;7.60;1.33;;;12.70;99.90;;;;;;4999209;28;20046;-79
2021/03/25 10:07:54;;;;;;;7.25;1.52;;;12.80;99.90;;;;;;5016361;28;20376;-80
2021/03/25 10:10:23;;;;;;;9.32;1.20;;;12.80;99.90;;;;;;5011698;28;20498;-80
2021/03/25 10:13:02;;;;;;;8.05;1.13;;;12.70;99.90;;;;;;5010231;28;20058;-79
2021/03/25 10:15:36;;;;;;;7.10;1.10;;;12.80;99.90;;;;;;5010176;28;20046;-80
2021/03/25 10:18:09;;;;;;;6.03;0.88;;;12.80;99.90;;;;;;4989452;28;20077;-79
2021/03/25 10:20:59;;;;;;;5.57;1.20;;;12.80;99.90;;;;;;5008672;28;20038;-79
2021/03/25 10:23:37;;;;;;;4.75;0.95;;;12.90;99.90;;;;;;5009379;28;20388;-79
2021/03/25 10:26:04;;;;;;;7.72;1.35;;;13.10;99.90;;;;;;5001445;28;20055;-79
2021/03/25 10:28:36;;;;;;;5.38;1.50;;;13.20;99.90;;;;;;5003992;28;20115;-80
2021/03/25 10:31:12;;;;;;;5.28;1.08;;;13.20;99.90;;;;;;4999515;28;20050;-79
2021/03/25 10:33:38;;;;;;;6.25;1.45;;;13.30;99.90;;;;;;4981063;28;20108;-78
2021/03/25 10:36:15;;;;;;;6.68;0.98;;;13.30;99.90;;;;;;5002366;28;20042;-79
2021/03/25 10:38:47;;;;;;;4.18;0.80;;;13.40;99.90;;;;;;4996445;28;20050;-79
2021/03/25 10:41:19;;;;;;;5.78;1.08;;;13.40;99.90;;;;;;5010177;28;20042;-78
2021/03/25 10:43:50;;;;;;;5.47;1.30;;;13.40;99.90;;;;;;5011681;28;20054;-79
2021/03/25 10:46:35;;;;;;;6.72;1.25;;;13.30;99.90;;;;;;5010672;28;20046;-79
2021/03/25 10:49:13;;;;;;;9.82;1.67;;;13.20;99.90;;;;;;5011656;28;20060;-79
2021/03/25 10:51:42;;;;;;;5.30;1.50;;;13.20;99.90;;;;;;5007676;28;20042;-78
2021/03/25 10:54:20;;;;;;;;;;;13.20;99.90;;;;;;4990450;28;20369;-79
2021/03/25 10:56:47;;;;;;;6.95;2.22;;;13.30;99.90;;;;;;5005703;28;19925;-78
2021/03/25 10:59:16;;;;;;;6.93;1.23;;;13.40;99.90;;;;;;5010506;28;20037;-78
2021/03/25 11:01:50;;;;;;;;;;;13.50;99.90;;;;;;5001990;28;20046;-79
2021/03/25 11:04:23;;;;;;;6.82;1.10;;;13.70;99.90;;;;;;5008372;28;19964;-79
2021/03/25 11:06:52;;;;;;;5.90;1.20;;;13.80;99.90;;;;;;5005663;28;20050;-79
2021/03/25 11:09:30;;;;;;;5.07;1.40;;;13.90;99.90;;;;;;5010344;28;20054;-79
2021/03/25 11:12:02;;;;;;;6.93;1.63;;;14.10;99.90;;;;;;5014222;28;20045;-78
2021/03/25 11:14:36;;;;;;;6.38;1.13;;;14.30;99.90;;;;;;5033008;28;20061;-78
2021/03/25 11:17:15;;;;;;;6.82;1.50;;;14.30;99.90;;;;;;5014422;28;20080;-79
2021/03/25 11:19:42;;;;;;;;;;;14.50;99.90;;;;;;5030007;28;20133;-79
2021/03/25 11:22:12;;;;;;;5.47;1.10;;;14.40;99.90;;;;;;5021414;28;20382;-81
2021/03/25 11:24:39;;;;;;;8.07;1.50;;;14.40;99.90;;;;;;5020599;28;20045;-78
2021/03/25 11:27:12;;;;;;;4.88;1.10;;;14.40;99.90;;;;;;5021345;28;20486;-81
2021/03/25 11:29:41;;;;;;;6.35;1.17;;;14.40;99.90;;;;;;4987189;28;20127;-78
2021/03/25 11:32:46;;;;;;;7.75;1.58;;;14.40;99.90;;;;;;5024657;28;20057;-80
2021/03/25 11:35:34;;;;;;;7.63;1.40;;;14.30;99.90;;;;;;5027602;28;20045;-78
2021/03/25 11:38:25;;;;;;;6.45;1.05;;;14.40;99.90;;;;;;5022912;28;20054;-79
2021/03/25 11:40:58;;;;;;;6.63;1.25;;;14.40;99.90;;;;;;5030956;28;20053;-78
2021/03/25 11:43:40;;;;;;;6.47;1.13;;;14.40;99.90;;;;;;5025351;28;20049;-80
2021/03/25 11:46:07;;;;;;;8.90;1.38;;;14.40;99.90;;;;;;5027300;28;20049;-81
2021/03/25 11:48:35;;;;;;;4.90;1.10;;;14.40;99.90;;;;;;5016841;28;20041;-81
2021/03/25 11:51:15;;;;;;;7.55;1.48;;;14.50;99.90;;;;;;5017089;28;20050;-81
2021/03/25 11:53:49;;;;;;;6.47;1.08;;;14.50;99.90;;;;;;5017010;28;20383;-81
2021/03/25 11:56:36;;;;;;;9.88;1.23;;;14.50;99.90;;;;;;5028608;28;20045;-78
2021/03/25 11:59:22;;;;;;;7.97;1.40;;;14.50;99.90;;;;;;5003244;28;20136;-77
2021/03/25 12:01:49;;;;;;;6.88;1.25;;;14.60;99.90;;;;;;5022638;28;20046;-76
2021/03/25 12:04:18;;;;;;;5.95;1.17;;;14.70;99.90;;;;;;5030127;28;20089;-77
2021/03/25 12:06:59;;;;;;;10.25;1.33;;;14.70;99.90;;;;;;5017296;28;20061;-77
2021/03/25 12:09:26;;;;;;;6.65;1.20;;;14.80;99.90;;;;;;5030418;28;20042;-77
2021/03/25 12:11:53;;;;;;;6.55;0.88;;;14.70;99.90;;;;;;5019678;28;20446;-79
2021/03/25 12:14:23;;;;;;;8.32;1.17;;;14.80;99.90;;;;;;5029457;28;20220;-76
2021/03/25 12:16:55;;;;;;;6.57;1.05;;;14.80;99.90;;;;;;5030743;28;20084;-79
2021/03/25 12:19:42;;;;;;;6.13;1.08;;;14.80;99.90;;;;;;5019155;28;20037;-76
2021/03/25 12:22:19;;;;;;;9.00;1.13;;;14.80;99.90;;;;;;5027026;28;20068;-78
2021/03/25 12:24:46;;;;;;;7.80;1.05;;;14.80;99.90;;;;;;5024445;28;20542;-79
2021/03/25 12:27:18;;;;;;;6.22;1.35;;;14.80;99.90;;;;;;5004427;28;20057;-81
2021/03/25 12:29:44;;;;;;;8.85;1.30;;;14.80;99.90;;;;;;5015739;28;20049;-79
2021/03/25 12:32:14;;;;;;;8.25;1.45;;;14.70;99.90;;;;;;5046012;28;20379;-79
2021/03/25 12:35:02;;;;;;;8.25;1.58;;;14.70;99.90;;;;;;5033204;28;20052;-82
2021/03/25 12:37:29;;;;;;;7.07;1.10;;;14.70;99.90;;;;;;5031346;28;20069;-81
2021/03/25 12:39:57;;;;;;;9.35;1.27;;;14.60;99.90;;;;;;5016926;28;20049;-81
2021/03/25 12:42:24;;;;;;;5.60;1.08;;;14.60;99.90;;;;;;5021720;28;20049;-79
2021/03/25 12:44:55;;;;;;;10.23;1.40;;;14.70;99.90;;;;;;5015950;28;20053;-79
2021/03/25 12:47:21;;;;;;;8.25;1.20;;;14.70;99.90;;;;;;5017021;28;20057;-79
2021/03/25 12:50:04;;;;;;;5.95;1.33;;;14.70;99.90;;;;;;5013438;28;20045;-79
2021/03/25 12:52:31;;;;;;;7.22;1.65;;;14.70;99.90;;;;;;5009616;28;20499;-79
2021/03/25 12:54:57;;;;;;;6.80;1.08;;;14.70;99.90;;;;;;5012746;28;20057;-78
2021/03/25 12:57:27;;;;;;;4.38;0.90;;;14.70;99.90;;;;;;5029619;28;20045;-79
2021/03/25 12:59:58;;;;;;;6.88;1.13;;;14.60;99.90;;;;;;5012260;28;20402;-78
2021/03/25 13:02:25;;;;;;;9.38;1.38;;;14.60;99.90;;;;;;5013255;28;20364;-79
2021/03/25 13:04:52;;;;;;;5.20;1.30;;;14.60;99.90;;;;;;5031976;28;20050;-81
2021/03/25 13:07:19;;;;;;;4.47;0.98;;;14.60;99.90;;;;;;5028123;28;20038;-80
2021/03/25 13:09:45;;;;;;;6.35;1.73;;;14.60;99.90;;;;;;5024433;28;20061;-81
2021/03/25 13:12:23;;;;;;;4.70;1.38;;;14.50;99.90;;;;;;5020604;28;20045;-81
2021/03/25 13:14:49;;;;;;;6.88;1.30;;;14.50;99.90;;;;;;5018316;28;20379;-81
2021/03/25 13:17:16;;;;;;;6.60;1.00;;;14.50;99.90;;;;;;5018191;28;20046;-80
2021/03/25 13:20:04;;;;;;;9.65;1.42;;;14.40;99.90;;;;;;5028944;28;20435;-80
2021/03/25 13:22:31;;;;;;;11.18;1.90;;;14.30;99.90;;;;;;5012497;28;20052;-80
2021/03/25 13:24:58;;;;;;;10.18;1.50;;;14.30;99.90;;;;;;5029483;28;20049;-80
2021/03/25 13:27:24;;;;;;;7.43;1.33;;;14.30;99.90;;;;;;5024877;28;20041;-80
2021/03/25 13:29:50;;;;;;;6.85;1.77;;;14.30;99.90;;;;;;5012889;28;20057;-80
2021/03/25 13:32:17;;;;;;;14.90;2.35;;;14.30;99.90;;;;;;5031240;28;20115;-81
2021/03/25 13:34:44;;;;;;;9.95;1.40;;;14.30;99.90;;;;;;5014487;28;20077;-80